createdAt,value
2022-08-28T00:01:08.250Z,18.20
2022-08-28T00:03:36.913Z,18.20
2022-08-28T00:06:06.200Z,18.20
2022-08-28T00:08:33.694Z,18.20
2022-08-28T00:11:01.153Z,18.20
2022-08-28T00:13:28.472Z,18.10
2022-08-28T00:16:00.856Z,18.10
2022-08-28T00:18:31.786Z,18.10
2022-08-28T00:21:00.167Z,18.10
2022-08-28T00:23:35.214Z,18.10
2022-08-28T00:26:32.093Z,18.00
2022-08-28T00:28:59.801Z,18.00
2022-08-28T00:31:27.400Z,18.00
2022-08-28T00:33:54.796Z,18.00
2022-08-28T00:36:22.181Z,17.90
2022-08-28T00:38:50.335Z,18.00
2022-08-28T00:41:24.889Z,17.90
2022-08-28T00:44:21.666Z,17.90
2022-08-28T00:46:52.543Z,17.90
2022-08-28T00:49:24.319Z,17.90
2022-08-28T00:52:08.168Z,17.90
2022-08-28T00:54:41.565Z,17.80
2022-08-28T00:57:28.716Z,17.80
2022-08-28T00:59:56.072Z,17.80
2022-08-28T01:02:23.588Z,17.80
2022-08-28T01:04:51.256Z,17.80
2022-08-28T01:07:19.093Z,17.80
2022-08-28T01:09:51.029Z,17.70
2022-08-28T01:12:20.652Z,17.70
2022-08-28T01:14:52.162Z,17.70
2022-08-28T01:17:23.694Z,17.70
2022-08-28T01:19:58.401Z,17.60
2022-08-28T01:22:59.009Z,17.60
2022-08-28T01:25:33.822Z,17.60
2022-08-28T01:28:04.117Z,17.50
2022-08-28T01:30:32.527Z,17.50
2022-08-28T01:33:00.944Z,17.40
2022-08-28T01:35:33.019Z,17.40
2022-08-28T01:38:01.544Z,17.40
2022-08-28T01:40:38.113Z,17.50
2022-08-28T01:43:17.762Z,17.40
2022-08-28T01:45:49.118Z,17.40
2022-08-28T01:48:19.781Z,17.40
2022-08-28T01:50:47.668Z,17.40
2022-08-28T01:53:17.488Z,17.40
2022-08-28T01:55:46.620Z,17.40
2022-08-28T01:58:14.187Z,17.40
2022-08-28T02:00:42.183Z,17.50
2022-08-28T02:03:10.277Z,17.50
2022-08-28T02:05:38.677Z,17.40
2022-08-28T02:08:07.323Z,17.50
2022-08-28T02:10:37.573Z,17.40
2022-08-28T02:13:07.407Z,17.40
2022-08-28T02:15:36.521Z,17.40
2022-08-28T02:18:04.286Z,17.50
2022-08-28T02:20:33.598Z,17.40
2022-08-28T02:23:01.684Z,17.40
2022-08-28T02:25:29.851Z,17.40
2022-08-28T02:27:57.591Z,17.40
2022-08-28T02:30:25.131Z,17.40
2022-08-28T02:32:52.660Z,17.40
2022-08-28T02:35:23.840Z,17.40
2022-08-28T02:37:51.818Z,17.40
2022-08-28T02:40:23.957Z,17.40
2022-08-28T02:42:52.183Z,17.40
2022-08-28T02:45:20.907Z,17.40
2022-08-28T02:47:51.138Z,17.40
2022-08-28T02:50:19.798Z,17.40
2022-08-28T02:52:47.583Z,17.40
2022-08-28T02:55:17.109Z,17.40
2022-08-28T02:57:45.550Z,17.40
2022-08-28T03:00:16.985Z,17.30
2022-08-28T03:02:46.326Z,17.40
2022-08-28T03:05:16.951Z,17.30
2022-08-28T03:07:44.539Z,17.40
2022-08-28T03:10:12.241Z,17.40
2022-08-28T03:12:39.694Z,17.40
2022-08-28T03:15:08.221Z,17.40
2022-08-28T03:17:36.970Z,17.40
2022-08-28T03:20:10.557Z,17.30
2022-08-28T03:22:56.469Z,17.30
2022-08-28T03:25:24.825Z,17.30
2022-08-28T03:27:52.996Z,17.30
2022-08-28T03:30:22.005Z,17.20
2022-08-28T03:32:49.891Z,17.30
2022-08-28T03:35:17.750Z,17.20
2022-08-28T03:37:45.125Z,17.20
2022-08-28T03:40:13.890Z,17.20
2022-08-28T03:42:41.403Z,17.20
2022-08-28T03:45:10.918Z,17.20
2022-08-28T03:47:41.810Z,17.10
2022-08-28T03:50:11.856Z,17.10
2022-08-28T03:52:40.955Z,17.00
2022-08-28T03:55:10.585Z,17.00
2022-08-28T03:57:38.991Z,17.00
2022-08-28T04:00:09.455Z,17.10
2022-08-28T04:02:41.875Z,17.00
2022-08-28T04:05:10.982Z,17.00
2022-08-28T04:07:40.143Z,16.90
2022-08-28T04:10:08.617Z,16.90
2022-08-28T04:12:37.099Z,17.00
2022-08-28T04:15:06.931Z,17.00
2022-08-28T04:17:34.908Z,17.00
2022-08-28T04:20:02.374Z,17.00
2022-08-28T04:22:30.174Z,16.90
2022-08-28T04:24:57.540Z,16.90
2022-08-28T04:27:24.981Z,16.90
2022-08-28T04:29:52.518Z,16.90
2022-08-28T04:32:19.910Z,17.00
2022-08-28T04:34:47.414Z,16.90
2022-08-28T04:37:15.869Z,16.90
2022-08-28T04:39:43.833Z,16.90
2022-08-28T04:42:11.251Z,16.90
2022-08-28T04:44:38.921Z,16.90
2022-08-28T04:47:06.401Z,16.90
2022-08-28T04:49:33.814Z,16.90
2022-08-28T04:52:01.722Z,16.80
2022-08-28T04:54:29.200Z,16.80
2022-08-28T04:56:56.567Z,16.80
2022-08-28T04:59:24.098Z,16.70
2022-08-28T05:01:52.006Z,16.70
2022-08-28T05:04:20.175Z,16.70
2022-08-28T05:06:48.040Z,16.70
2022-08-28T05:09:18.373Z,16.60
2022-08-28T05:11:46.446Z,16.60
2022-08-28T05:14:16.291Z,16.60
2022-08-28T05:16:49.268Z,16.50
2022-08-28T05:19:18.871Z,16.50
2022-08-28T05:21:47.209Z,16.50
2022-08-28T05:24:16.776Z,16.50
2022-08-28T05:26:44.236Z,16.50
2022-08-28T05:29:16.993Z,16.40
2022-08-28T05:31:44.943Z,16.40
2022-08-28T05:34:15.284Z,16.40
2022-08-28T05:36:42.759Z,16.30
2022-08-28T05:39:11.644Z,16.30
2022-08-28T05:41:42.482Z,16.20
2022-08-28T05:44:14.744Z,16.20
2022-08-28T05:46:45.026Z,16.20
2022-08-28T05:49:13.575Z,16.20
2022-08-28T05:51:42.403Z,16.20
2022-08-28T05:54:10.765Z,16.20
2022-08-28T05:56:40.583Z,16.20
2022-08-28T05:59:09.073Z,16.20
2022-08-28T06:01:40.562Z,16.20
2022-08-28T06:04:12.140Z,16.30
2022-08-28T06:06:41.293Z,16.30
2022-08-28T06:09:24.240Z,16.40
2022-08-28T06:11:57.605Z,16.50
2022-08-28T06:14:25.867Z,16.60
2022-08-28T06:16:56.073Z,16.60
2022-08-28T06:19:25.808Z,16.70
2022-08-28T06:21:58.408Z,16.80
2022-08-28T06:24:28.029Z,16.80
2022-08-28T06:26:58.118Z,16.90
2022-08-28T06:29:27.449Z,16.80
2022-08-28T06:32:01.142Z,16.90
2022-08-28T06:34:29.159Z,16.90
2022-08-28T06:36:56.603Z,16.90
2022-08-28T06:39:24.549Z,16.90
2022-08-28T06:41:53.291Z,16.90
2022-08-28T06:44:21.740Z,16.80
2022-08-28T06:46:51.538Z,16.80
2022-08-28T06:49:19.231Z,16.80
2022-08-28T06:51:46.767Z,16.80
2022-08-28T06:54:21.118Z,16.80
2022-08-28T06:56:49.777Z,16.90
2022-08-28T06:59:17.293Z,17.00
2022-08-28T07:01:44.725Z,17.10
2022-08-28T07:04:14.591Z,17.20
2022-08-28T07:06:46.746Z,17.30
2022-08-28T07:09:15.090Z,17.30
2022-08-28T07:11:46.711Z,17.30
2022-08-28T07:14:14.113Z,17.30
2022-08-28T07:16:41.847Z,17.40
2022-08-28T07:19:11.445Z,17.50
2022-08-28T07:21:48.202Z,17.40
2022-08-28T07:24:17.233Z,17.40
2022-08-28T07:26:46.106Z,17.50
2022-08-28T07:29:14.469Z,17.60
2022-08-28T07:31:49.162Z,17.60
2022-08-28T07:34:18.878Z,17.60
2022-08-28T07:36:46.352Z,17.50
2022-08-28T07:39:15.940Z,17.50
2022-08-28T07:41:43.861Z,17.70
2022-08-28T07:44:31.931Z,17.70
2022-08-28T07:47:04.029Z,17.70
2022-08-28T07:49:33.837Z,17.60
2022-08-28T07:52:02.130Z,17.60
2022-08-28T07:54:29.641Z,17.50
2022-08-28T07:56:57.050Z,17.60
2022-08-28T07:59:24.867Z,17.60
2022-08-28T08:01:53.429Z,17.50
2022-08-28T08:04:22.820Z,17.40
2022-08-28T08:06:57.535Z,17.30
2022-08-28T08:09:26.405Z,17.30
2022-08-28T08:11:55.122Z,17.30
2022-08-28T08:14:23.404Z,17.60
2022-08-28T08:16:52.457Z,17.90
2022-08-28T08:19:20.592Z,18.10
2022-08-28T08:21:54.560Z,18.30
2022-08-28T08:24:26.847Z,18.40
2022-08-28T08:26:59.870Z,18.40
2022-08-28T08:29:35.846Z,18.60
2022-08-28T08:32:08.510Z,18.70
2022-08-28T08:34:42.197Z,18.80
2022-08-28T08:37:10.541Z,19.00
2022-08-28T08:39:38.273Z,19.00
2022-08-28T08:42:25.933Z,19.10
2022-08-28T08:44:56.431Z,19.10
2022-08-28T08:47:57.063Z,19.20
2022-08-28T08:50:29.380Z,19.50
2022-08-28T08:53:23.101Z,19.40
2022-08-28T08:55:53.444Z,19.30
2022-08-28T08:58:44.058Z,19.30
2022-08-28T09:01:39.114Z,19.40
2022-08-28T09:04:49.386Z,19.50
2022-08-28T09:07:23.439Z,19.70
2022-08-28T09:09:53.145Z,19.90
2022-08-28T09:12:26.150Z,20.10
2022-08-28T09:15:11.655Z,20.00
2022-08-28T09:17:50.080Z,20.40
2022-08-28T09:20:21.473Z,20.30
2022-08-28T09:22:59.944Z,20.30
2022-08-28T09:26:12.415Z,20.50
2022-08-28T09:28:41.787Z,20.50
2022-08-28T09:31:41.255Z,20.60
2022-08-28T09:34:30.439Z,20.60
2022-08-28T09:37:02.422Z,20.70
2022-08-28T09:39:32.283Z,20.30
2022-08-28T09:42:41.949Z,20.50
2022-08-28T09:45:21.101Z,20.30
2022-08-28T09:48:18.124Z,20.00
2022-08-28T09:51:16.750Z,20.20
2022-08-28T09:54:32.883Z,20.80
2022-08-28T09:57:01.152Z,21.00
2022-08-28T09:59:29.609Z,21.20
2022-08-28T10:02:13.241Z,21.00
2022-08-28T10:05:16.939Z,21.00
2022-08-28T10:07:56.560Z,21.50
2022-08-28T10:10:48.020Z,21.80
2022-08-28T10:13:23.889Z,21.40
2022-08-28T10:16:42.004Z,21.40
2022-08-28T10:19:45.721Z,21.40
2022-08-28T10:22:36.590Z,21.30
2022-08-28T10:25:25.051Z,21.10
2022-08-28T10:28:33.118Z,20.60
2022-08-28T10:31:11.009Z,20.50
2022-08-28T10:34:05.866Z,21.40
2022-08-28T10:36:35.447Z,21.50
2022-08-28T10:39:43.177Z,21.40
2022-08-28T10:42:11.018Z,21.10
2022-08-28T10:44:51.646Z,21.20
2022-08-28T10:47:22.594Z,21.30
2022-08-28T10:50:01.853Z,21.40
2022-08-28T10:53:07.403Z,21.50
2022-08-28T10:56:04.041Z,21.50
2022-08-28T10:58:34.011Z,21.90
2022-08-28T11:01:07.160Z,22.00
2022-08-28T11:03:43.095Z,21.90
2022-08-28T11:06:25.086Z,21.80
2022-08-28T11:08:54.416Z,21.70
2022-08-28T11:11:44.895Z,21.40
2022-08-28T11:14:31.127Z,21.80
2022-08-28T11:17:42.227Z,21.90
2022-08-28T11:20:22.737Z,21.70
2022-08-28T11:22:56.292Z,21.60
2022-08-28T11:25:32.833Z,21.60
2022-08-28T11:28:47.455Z,21.60
2022-08-28T11:31:36.673Z,21.20
2022-08-28T11:34:05.647Z,20.90
2022-08-28T11:36:56.939Z,21.30
2022-08-28T11:39:24.451Z,21.30
2022-08-28T11:42:32.234Z,21.20
2022-08-28T11:45:00.757Z,21.10
2022-08-28T11:47:53.026Z,21.40
2022-08-28T11:50:26.933Z,21.40
2022-08-28T11:53:12.037Z,21.30
2022-08-28T11:56:40.582Z,21.00
2022-08-28T11:59:35.907Z,21.60
2022-08-28T12:02:46.668Z,22.00
2022-08-28T12:05:39.940Z,22.00
2022-08-28T12:08:09.008Z,22.10
2022-08-28T12:10:55.888Z,21.80
2022-08-28T12:13:48.800Z,22.20
2022-08-28T12:16:16.407Z,22.20
2022-08-28T12:19:10.181Z,22.30
2022-08-28T12:21:39.140Z,22.10
2022-08-28T12:24:24.097Z,22.20
2022-08-28T12:26:54.750Z,22.40
2022-08-28T12:29:34.971Z,22.50
2022-08-28T12:32:38.679Z,22.40
2022-08-28T12:35:21.089Z,22.20
2022-08-28T12:38:18.966Z,22.10
2022-08-28T12:40:53.468Z,22.30
2022-08-28T12:43:31.886Z,22.40
2022-08-28T12:46:30.199Z,22.50
2022-08-28T12:49:01.254Z,22.30
2022-08-28T12:51:34.655Z,22.60
2022-08-28T12:54:07.125Z,23.00
2022-08-28T12:56:38.056Z,22.80
2022-08-28T12:59:39.585Z,22.70
2022-08-28T13:02:19.293Z,22.80
2022-08-28T13:05:00.923Z,23.30
2022-08-28T13:07:40.650Z,23.00
2022-08-28T13:10:49.721Z,23.00
2022-08-28T13:13:30.403Z,23.10
2022-08-28T13:16:03.955Z,23.10
2022-08-28T13:18:45.815Z,23.30
2022-08-28T13:21:33.794Z,23.40
2022-08-28T13:24:27.459Z,23.50
2022-08-28T13:27:24.387Z,23.70
2022-08-28T13:30:01.591Z,23.90
2022-08-28T13:32:36.115Z,24.10
2022-08-28T13:35:37.968Z,24.10
2022-08-28T13:38:12.512Z,23.90
2022-08-28T13:40:59.061Z,24.30
2022-08-28T13:43:41.793Z,24.40
2022-08-28T13:46:09.211Z,24.20
2022-08-28T13:48:36.580Z,24.50
2022-08-28T13:51:10.675Z,24.70
2022-08-28T13:53:39.448Z,24.00
2022-08-28T13:56:06.967Z,23.30
2022-08-28T13:58:34.355Z,24.00
2022-08-28T14:01:02.511Z,24.00
2022-08-28T14:03:36.017Z,24.10
2022-08-28T14:06:07.052Z,23.80
2022-08-28T14:08:34.710Z,24.00
2022-08-28T14:11:03.734Z,24.40
2022-08-28T14:13:31.436Z,25.10
2022-08-28T14:15:58.886Z,24.20
2022-08-28T14:18:26.554Z,23.90
2022-08-28T14:20:53.982Z,23.80
2022-08-28T14:23:21.557Z,24.30
2022-08-28T14:25:49.223Z,24.70
2022-08-28T14:28:17.403Z,24.40
2022-08-28T14:30:50.216Z,23.70
2022-08-28T14:33:20.863Z,23.30
2022-08-28T14:35:49.133Z,23.00
2022-08-28T14:38:16.827Z,23.30
2022-08-28T14:40:45.021Z,23.70
2022-08-28T14:43:14.057Z,24.10
2022-08-28T14:45:44.057Z,24.40
2022-08-28T14:48:11.836Z,24.80
2022-08-28T14:50:44.353Z,24.90
2022-08-28T14:53:13.826Z,24.80
2022-08-28T14:55:47.387Z,24.90
2022-08-28T14:58:16.176Z,24.60
2022-08-28T15:00:47.234Z,24.20
2022-08-28T15:03:16.344Z,24.00
2022-08-28T15:05:44.275Z,24.00
2022-08-28T15:08:14.608Z,23.90
2022-08-28T15:10:43.344Z,24.10
2022-08-28T15:13:11.249Z,24.20
2022-08-28T15:15:41.297Z,24.40
2022-08-28T15:18:10.365Z,24.50
2022-08-28T15:20:39.797Z,24.80
2022-08-28T15:23:07.695Z,25.20
2022-08-28T15:25:35.326Z,25.30
2022-08-28T15:28:03.030Z,25.30
2022-08-28T15:30:30.416Z,25.60
2022-08-28T15:32:58.191Z,25.90
2022-08-28T15:35:25.660Z,26.10
2022-08-28T15:37:53.646Z,26.20
2022-08-28T15:40:40.022Z,26.40
2022-08-28T15:43:07.641Z,26.10
2022-08-28T15:45:39.458Z,25.80
2022-08-28T15:48:08.328Z,25.70
2022-08-28T15:50:35.728Z,25.80
2022-08-28T15:53:04.325Z,25.90
2022-08-28T15:55:34.150Z,25.90
2022-08-28T15:58:07.390Z,25.70
2022-08-28T16:00:42.105Z,25.60
2022-08-28T16:03:09.673Z,25.50
2022-08-28T16:05:39.675Z,25.10
2022-08-28T16:08:10.415Z,25.00
2022-08-28T16:10:38.095Z,24.70
2022-08-28T16:13:06.790Z,24.50
2022-08-28T16:15:34.981Z,24.00
2022-08-28T16:18:02.447Z,23.50
2022-08-28T16:20:29.876Z,23.10
2022-08-28T16:22:57.309Z,22.80
2022-08-28T16:25:24.664Z,22.60
2022-08-28T16:27:52.104Z,22.40
2022-08-28T16:30:20.423Z,22.40
2022-08-28T16:32:52.028Z,22.30
2022-08-28T16:35:22.323Z,22.20
2022-08-28T16:37:50.371Z,22.10
2022-08-28T16:40:17.946Z,22.10
2022-08-28T16:42:51.764Z,22.00
2022-08-28T16:45:20.366Z,21.90
2022-08-28T16:47:48.141Z,21.90
2022-08-28T16:50:16.146Z,21.80
2022-08-28T16:52:43.573Z,21.70
2022-08-28T16:55:11.881Z,21.70
2022-08-28T16:57:39.686Z,21.60
2022-08-28T17:00:12.380Z,21.60
2022-08-28T17:02:42.398Z,21.60
2022-08-28T17:05:11.996Z,21.50
2022-08-28T17:07:39.954Z,21.50
2022-08-28T17:10:09.074Z,21.40
2022-08-28T17:12:36.496Z,21.30
2022-08-28T17:15:05.067Z,21.20
2022-08-28T17:17:33.077Z,21.20
2022-08-28T17:20:00.557Z,21.10
2022-08-28T17:22:32.988Z,21.00
2022-08-28T17:25:07.727Z,21.00
2022-08-28T17:27:36.715Z,20.90
2022-08-28T17:30:05.117Z,20.80
2022-08-28T17:32:32.654Z,20.60
2022-08-28T17:35:00.542Z,20.50
2022-08-28T17:37:28.296Z,20.30
2022-08-28T17:39:55.716Z,20.20
2022-08-28T17:42:23.295Z,20.10
2022-08-28T17:44:51.166Z,20.00
2022-08-28T17:47:18.581Z,19.80
2022-08-28T17:49:53.676Z,19.70
2022-08-28T17:52:21.378Z,19.60
2022-08-28T17:54:48.703Z,19.40
2022-08-28T17:57:16.767Z,19.30
2022-08-28T17:59:44.196Z,19.20
2022-08-28T18:02:12.058Z,19.00
2022-08-28T18:04:39.439Z,18.80
2022-08-28T18:07:06.885Z,18.70
2022-08-28T18:09:35.027Z,18.70
2022-08-28T18:12:02.645Z,18.70
2022-08-28T18:14:31.270Z,18.60
2022-08-28T18:16:58.765Z,18.40
2022-08-28T18:19:26.156Z,18.20
2022-08-28T18:21:53.901Z,18.10
2022-08-28T18:24:21.314Z,17.90
2022-08-28T18:26:48.743Z,17.80
2022-08-28T18:29:16.215Z,17.60
2022-08-28T18:31:43.782Z,17.60
2022-08-28T18:34:11.285Z,17.60
2022-08-28T18:36:41.562Z,17.60
2022-08-28T18:39:09.965Z,17.60
2022-08-28T18:41:44.543Z,17.40
2022-08-28T18:44:14.262Z,17.30
2022-08-28T18:46:42.865Z,17.20
2022-08-28T18:49:11.814Z,17.10
2022-08-28T18:51:41.825Z,17.10
2022-08-28T18:54:10.036Z,17.20
2022-08-28T18:56:40.110Z,17.20
2022-08-28T18:59:08.926Z,17.60
2022-08-28T19:01:36.471Z,17.70
2022-08-28T19:04:04.573Z,17.50
2022-08-28T19:06:32.572Z,17.20
2022-08-28T19:09:00.696Z,17.00
2022-08-28T19:11:31.318Z,16.80
2022-08-28T19:13:59.561Z,16.70
2022-08-28T19:16:32.237Z,16.60
2022-08-28T19:19:01.207Z,16.50
2022-08-28T19:21:29.189Z,16.40
2022-08-28T19:23:57.048Z,16.30
2022-08-28T19:26:28.672Z,16.20
2022-08-28T19:28:56.975Z,16.10
2022-08-28T19:31:25.701Z,16.00
2022-08-28T19:33:53.833Z,16.00
2022-08-28T19:36:21.625Z,16.00
2022-08-28T19:38:49.032Z,15.90
2022-08-28T19:41:16.569Z,15.90
2022-08-28T19:43:44.580Z,15.80
2022-08-28T19:46:19.655Z,15.70
2022-08-28T19:48:49.747Z,15.70
2022-08-28T19:51:23.203Z,15.60
2022-08-28T19:53:57.825Z,15.60
2022-08-28T19:56:31.559Z,15.60
2022-08-28T19:59:01.435Z,15.50
2022-08-28T20:01:31.424Z,15.50
2022-08-28T20:03:59.860Z,15.50
2022-08-28T20:06:28.403Z,15.40
2022-08-28T20:08:55.896Z,15.40
2022-08-28T20:11:30.289Z,15.30
2022-08-28T20:14:04.824Z,15.30
2022-08-28T20:16:35.330Z,15.20
2022-08-28T20:19:04.077Z,15.20
2022-08-28T20:21:37.270Z,15.10
2022-08-28T20:24:08.026Z,15.10
2022-08-28T20:26:36.532Z,15.00
2022-08-28T20:29:06.178Z,15.00
2022-08-28T20:31:33.706Z,15.00
2022-08-28T20:34:01.248Z,15.00
2022-08-28T20:36:28.659Z,14.90
2022-08-28T20:38:56.938Z,14.90
2022-08-28T20:41:24.923Z,14.90
2022-08-28T20:43:52.365Z,14.80
2022-08-28T20:46:20.266Z,14.80
2022-08-28T20:48:47.772Z,14.70
2022-08-28T20:51:15.139Z,14.70
2022-08-28T20:53:42.533Z,14.60
2022-08-28T20:56:10.564Z,14.60
2022-08-28T20:58:38.437Z,14.60
2022-08-28T21:01:06.132Z,14.50
2022-08-28T21:03:33.827Z,14.50
2022-08-28T21:06:01.534Z,14.50
2022-08-28T21:08:29.223Z,14.40
2022-08-28T21:10:56.746Z,14.40
2022-08-28T21:13:24.160Z,14.30
2022-08-28T21:15:51.515Z,14.40
2022-08-28T21:18:18.918Z,14.40
2022-08-28T21:20:46.548Z,14.30
2022-08-28T21:23:14.235Z,14.30
2022-08-28T21:25:41.731Z,14.20
2022-08-28T21:28:09.232Z,14.20
2022-08-28T21:30:37.491Z,14.20
2022-08-28T21:33:05.346Z,14.30
2022-08-28T21:35:32.832Z,14.40
2022-08-28T21:38:00.285Z,14.40
2022-08-28T21:40:27.744Z,14.40
2022-08-28T21:42:55.190Z,14.30
2022-08-28T21:45:22.569Z,14.30
2022-08-28T21:47:49.957Z,14.30
2022-08-28T21:50:17.630Z,14.30
2022-08-28T21:52:45.672Z,14.30
2022-08-28T21:55:15.507Z,14.20
2022-08-28T21:57:43.108Z,14.20
2022-08-28T22:00:17.361Z,14.20
2022-08-28T22:02:44.933Z,14.20
2022-08-28T22:05:12.636Z,14.20
2022-08-28T22:07:40.500Z,14.40
2022-08-28T22:10:09.511Z,14.30
2022-08-28T22:12:37.008Z,14.20
2022-08-28T22:15:05.428Z,14.20
2022-08-28T22:17:32.858Z,14.20
2022-08-28T22:20:00.219Z,14.20
2022-08-28T22:22:46.546Z,14.20
2022-08-28T22:25:13.999Z,14.20
2022-08-28T22:27:41.650Z,14.10
2022-08-28T22:30:09.713Z,14.10
2022-08-28T22:32:37.094Z,14.00
2022-08-28T22:35:04.924Z,14.00
2022-08-28T22:37:32.506Z,14.00
2022-08-28T22:40:00.014Z,14.20
2022-08-28T22:42:27.741Z,14.30
2022-08-28T22:44:55.093Z,14.30
2022-08-28T22:47:22.864Z,14.40
2022-08-28T22:49:50.332Z,14.40
2022-08-28T22:52:17.967Z,14.30
2022-08-28T22:54:45.657Z,14.30
2022-08-28T22:57:14.370Z,14.40
2022-08-28T22:59:42.184Z,14.30
2022-08-28T23:02:11.458Z,14.20
2022-08-28T23:04:39.722Z,14.10
2022-08-28T23:07:07.209Z,14.00
2022-08-28T23:09:35.990Z,14.30
2022-08-28T23:12:10.630Z,14.40
2022-08-28T23:14:37.999Z,14.30
2022-08-28T23:17:05.403Z,14.20
2022-08-28T23:19:33.884Z,14.10
2022-08-28T23:22:01.325Z,14.20
2022-08-28T23:24:28.737Z,14.20
2022-08-28T23:26:56.151Z,14.30
2022-08-28T23:29:23.694Z,14.30
2022-08-28T23:31:51.185Z,14.30
2022-08-28T23:34:18.552Z,14.30
2022-08-28T23:36:45.951Z,14.30
2022-08-28T23:39:14.047Z,14.20
2022-08-28T23:41:41.668Z,14.20
2022-08-28T23:44:09.414Z,14.20
2022-08-28T23:46:41.668Z,14.30
2022-08-28T23:49:10.783Z,14.20
2022-08-28T23:51:38.958Z,14.10
2022-08-28T23:54:07.348Z,14.10
2022-08-28T23:56:35.343Z,14.20
2022-08-28T23:59:03.489Z,14.30
